sensor_id;sensor_type;location;lat;lon;timestamp;P1;durP1;ratioP1;P2;durP2;ratioP2
45728;SDS011;31439;53.512;10.206;2023-11-19T00:00:25;11.90;;;6.43;;
45728;SDS011;31439;53.512;10.206;2023-11-19T00:02:51;9.80;;;6.38;;
45728;SDS011;31439;53.512;10.206;2023-11-19T00:05:17;11.48;;;6.40;;
45728;SDS011;31439;53.512;10.206;2023-11-19T00:07:44;9.35;;;7.00;;
45728;SDS011;31439;53.512;10.206;2023-11-19T00:10:10;9.68;;;6.43;;
45728;SDS011;31439;53.512;10.206;2023-11-19T00:12:37;9.13;;;6.00;;
45728;SDS011;31439;53.512;10.206;2023-11-19T00:15:04;7.53;;;5.35;;
45728;SDS011;31439;53.512;10.206;2023-11-19T00:17:31;8.32;;;5.55;;
45728;SDS011;31439;53.512;10.206;2023-11-19T00:19:57;8.32;;;5.38;;
45728;SDS011;31439;53.512;10.206;2023-11-19T00:22:23;8.23;;;5.32;;
45728;SDS011;31439;53.512;10.206;2023-11-19T00:24:50;6.75;;;5.00;;
45728;SDS011;31439;53.512;10.206;2023-11-19T00:27:17;7.28;;;5.28;;
45728;SDS011;31439;53.512;10.206;2023-11-19T00:29:43;7.03;;;4.95;;
45728;SDS011;31439;53.512;10.206;2023-11-19T00:32:10;6.85;;;4.28;;
45728;SDS011;31439;53.512;10.206;2023-11-19T00:34:36;5.72;;;4.28;;
45728;SDS011;31439;53.512;10.206;2023-11-19T00:37:02;6.97;;;4.28;;
45728;SDS011;31439;53.512;10.206;2023-11-19T00:39:29;4.82;;;3.80;;
45728;SDS011;31439;53.512;10.206;2023-11-19T00:41:55;5.53;;;3.53;;
45728;SDS011;31439;53.512;10.206;2023-11-19T00:44:22;5.60;;;4.00;;
45728;SDS011;31439;53.512;10.206;2023-11-19T00:46:48;6.28;;;4.03;;
45728;SDS011;31439;53.512;10.206;2023-11-19T00:49:14;5.47;;;4.10;;
45728;SDS011;31439;53.512;10.206;2023-11-19T00:51:40;5.40;;;3.45;;
45728;SDS011;31439;53.512;10.206;2023-11-19T00:54:06;5.63;;;3.50;;
45728;SDS011;31439;53.512;10.206;2023-11-19T00:56:32;4.10;;;2.88;;
45728;SDS011;31439;53.512;10.206;2023-11-19T00:58:58;5.15;;;3.15;;
45728;SDS011;31439;53.512;10.206;2023-11-19T01:01:25;4.50;;;3.33;;
45728;SDS011;31439;53.512;10.206;2023-11-19T01:03:51;4.68;;;3.15;;
45728;SDS011;31439;53.512;10.206;2023-11-19T01:06:30;4.90;;;3.47;;
45728;SDS011;31439;53.512;10.206;2023-11-19T01:08:56;4.10;;;2.97;;
45728;SDS011;31439;53.512;10.206;2023-11-19T01:11:22;3.63;;;2.80;;
45728;SDS011;31439;53.512;10.206;2023-11-19T01:13:49;4.10;;;2.88;;
45728;SDS011;31439;53.512;10.206;2023-11-19T01:16:15;4.03;;;2.83;;
45728;SDS011;31439;53.512;10.206;2023-11-19T01:18:41;4.25;;;2.80;;
45728;SDS011;31439;53.512;10.206;2023-11-19T01:21:07;4.38;;;2.75;;
45728;SDS011;31439;53.512;10.206;2023-11-19T01:23:34;5.85;;;3.03;;
45728;SDS011;31439;53.512;10.206;2023-11-19T01:26:00;4.55;;;2.92;;
45728;SDS011;31439;53.512;10.206;2023-11-19T01:28:26;3.95;;;2.63;;
45728;SDS011;31439;53.512;10.206;2023-11-19T01:30:52;3.22;;;2.20;;
45728;SDS011;31439;53.512;10.206;2023-11-19T01:33:18;4.00;;;2.90;;
45728;SDS011;31439;53.512;10.206;2023-11-19T01:35:45;4.25;;;2.60;;
45728;SDS011;31439;53.512;10.206;2023-11-19T01:38:11;3.10;;;2.20;;
45728;SDS011;31439;53.512;10.206;2023-11-19T01:40:37;3.47;;;2.63;;
45728;SDS011;31439;53.512;10.206;2023-11-19T01:43:03;3.40;;;2.13;;
45728;SDS011;31439;53.512;10.206;2023-11-19T01:45:29;3.50;;;2.50;;
45728;SDS011;31439;53.512;10.206;2023-11-19T01:47:56;3.45;;;2.13;;
45728;SDS011;31439;53.512;10.206;2023-11-19T01:50:23;4.50;;;2.30;;
45728;SDS011;31439;53.512;10.206;2023-11-19T01:52:50;3.20;;;2.20;;
45728;SDS011;31439;53.512;10.206;2023-11-19T01:55:16;3.38;;;2.35;;
45728;SDS011;31439;53.512;10.206;2023-11-19T01:57:42;2.72;;;1.85;;
45728;SDS011;31439;53.512;10.206;2023-11-19T02:00:09;4.25;;;1.80;;
45728;SDS011;31439;53.512;10.206;2023-11-19T02:02:36;3.03;;;2.20;;
45728;SDS011;31439;53.512;10.206;2023-11-19T02:05:04;2.50;;;2.00;;
45728;SDS011;31439;53.512;10.206;2023-11-19T02:07:30;3.05;;;1.90;;
45728;SDS011;31439;53.512;10.206;2023-11-19T02:09:57;2.53;;;2.00;;
45728;SDS011;31439;53.512;10.206;2023-11-19T02:12:28;3.35;;;1.90;;
45728;SDS011;31439;53.512;10.206;2023-11-19T02:14:54;3.13;;;1.70;;
45728;SDS011;31439;53.512;10.206;2023-11-19T02:17:27;2.40;;;1.80;;
45728;SDS011;31439;53.512;10.206;2023-11-19T02:19:53;2.08;;;1.55;;
45728;SDS011;31439;53.512;10.206;2023-11-19T02:22:19;1.88;;;1.35;;
45728;SDS011;31439;53.512;10.206;2023-11-19T02:24:45;2.90;;;1.70;;
45728;SDS011;31439;53.512;10.206;2023-11-19T02:27:20;2.28;;;1.70;;
45728;SDS011;31439;53.512;10.206;2023-11-19T02:29:49;1.95;;;1.50;;
45728;SDS011;31439;53.512;10.206;2023-11-19T02:32:15;2.42;;;1.80;;
45728;SDS011;31439;53.512;10.206;2023-11-19T02:34:41;2.97;;;1.67;;
45728;SDS011;31439;53.512;10.206;2023-11-19T02:37:07;2.33;;;1.65;;
45728;SDS011;31439;53.512;10.206;2023-11-19T02:39:34;3.47;;;1.90;;
45728;SDS011;31439;53.512;10.206;2023-11-19T02:42:01;2.15;;;1.70;;
45728;SDS011;31439;53.512;10.206;2023-11-19T02:44:27;3.92;;;2.05;;
45728;SDS011;31439;53.512;10.206;2023-11-19T02:46:55;2.95;;;1.75;;
45728;SDS011;31439;53.512;10.206;2023-11-19T02:49:24;2.63;;;1.90;;
45728;SDS011;31439;53.512;10.206;2023-11-19T02:51:50;2.50;;;1.63;;
45728;SDS011;31439;53.512;10.206;2023-11-19T02:54:16;2.50;;;1.98;;
45728;SDS011;31439;53.512;10.206;2023-11-19T02:56:43;2.78;;;1.88;;
45728;SDS011;31439;53.512;10.206;2023-11-19T02:59:09;2.33;;;1.70;;
45728;SDS011;31439;53.512;10.206;2023-11-19T03:01:51;2.38;;;1.65;;
45728;SDS011;31439;53.512;10.206;2023-11-19T03:04:18;2.90;;;1.75;;
45728;SDS011;31439;53.512;10.206;2023-11-19T03:06:45;2.50;;;1.90;;
45728;SDS011;31439;53.512;10.206;2023-11-19T03:09:11;2.70;;;1.90;;
45728;SDS011;31439;53.512;10.206;2023-11-19T03:11:37;2.60;;;2.00;;
45728;SDS011;31439;53.512;10.206;2023-11-19T03:14:04;3.45;;;2.15;;
45728;SDS011;31439;53.512;10.206;2023-11-19T03:16:30;2.85;;;1.95;;
45728;SDS011;31439;53.512;10.206;2023-11-19T03:18:56;2.85;;;1.90;;
45728;SDS011;31439;53.512;10.206;2023-11-19T03:21:28;2.90;;;2.10;;
45728;SDS011;31439;53.512;10.206;2023-11-19T03:23:54;2.90;;;2.30;;
45728;SDS011;31439;53.512;10.206;2023-11-19T03:26:21;2.88;;;1.98;;
45728;SDS011;31439;53.512;10.206;2023-11-19T03:28:47;2.97;;;2.15;;
45728;SDS011;31439;53.512;10.206;2023-11-19T03:31:13;4.63;;;2.10;;
45728;SDS011;31439;53.512;10.206;2023-11-19T03:33:39;3.20;;;2.10;;
45728;SDS011;31439;53.512;10.206;2023-11-19T03:36:05;3.10;;;2.20;;
45728;SDS011;31439;53.512;10.206;2023-11-19T03:38:32;2.75;;;2.10;;
45728;SDS011;31439;53.512;10.206;2023-11-19T03:40:58;3.65;;;2.35;;
45728;SDS011;31439;53.512;10.206;2023-11-19T03:43:24;3.10;;;2.20;;
45728;SDS011;31439;53.512;10.206;2023-11-19T03:45:50;3.45;;;2.50;;
45728;SDS011;31439;53.512;10.206;2023-11-19T03:48:16;3.15;;;2.33;;
45728;SDS011;31439;53.512;10.206;2023-11-19T03:50:42;3.20;;;2.47;;
45728;SDS011;31439;53.512;10.206;2023-11-19T03:53:08;4.32;;;2.70;;
45728;SDS011;31439;53.512;10.206;2023-11-19T03:55:34;3.33;;;2.70;;
45728;SDS011;31439;53.512;10.206;2023-11-19T03:58:00;3.40;;;2.67;;
45728;SDS011;31439;53.512;10.206;2023-11-19T04:00:26;5.10;;;2.90;;
45728;SDS011;31439;53.512;10.206;2023-11-19T04:02:52;3.60;;;2.60;;
45728;SDS011;31439;53.512;10.206;2023-11-19T04:05:18;3.40;;;2.60;;
45728;SDS011;31439;53.512;10.206;2023-11-19T04:07:44;3.38;;;2.55;;
45728;SDS011;31439;53.512;10.206;2023-11-19T04:10:10;3.78;;;2.85;;
45728;SDS011;31439;53.512;10.206;2023-11-19T04:12:36;3.65;;;2.85;;
45728;SDS011;31439;53.512;10.206;2023-11-19T04:15:03;3.47;;;2.70;;
45728;SDS011;31439;53.512;10.206;2023-11-19T04:17:29;4.22;;;2.50;;
45728;SDS011;31439;53.512;10.206;2023-11-19T04:19:55;3.75;;;2.63;;
45728;SDS011;31439;53.512;10.206;2023-11-19T04:22:21;3.67;;;2.90;;
45728;SDS011;31439;53.512;10.206;2023-11-19T04:24:47;4.53;;;2.75;;
45728;SDS011;31439;53.512;10.206;2023-11-19T04:27:13;6.15;;;3.08;;
45728;SDS011;31439;53.512;10.206;2023-11-19T04:29:39;3.40;;;2.83;;
45728;SDS011;31439;53.512;10.206;2023-11-19T04:32:06;4.47;;;2.65;;
45728;SDS011;31439;53.512;10.206;2023-11-19T04:34:32;4.38;;;2.67;;
45728;SDS011;31439;53.512;10.206;2023-11-19T04:36:58;4.50;;;3.10;;
45728;SDS011;31439;53.512;10.206;2023-11-19T04:39:28;4.25;;;2.65;;
45728;SDS011;31439;53.512;10.206;2023-11-19T04:41:54;3.42;;;2.72;;
45728;SDS011;31439;53.512;10.206;2023-11-19T04:44:20;4.15;;;2.88;;
45728;SDS011;31439;53.512;10.206;2023-11-19T04:46:47;5.07;;;2.83;;
45728;SDS011;31439;53.512;10.206;2023-11-19T04:49:13;5.07;;;2.85;;
45728;SDS011;31439;53.512;10.206;2023-11-19T04:51:40;4.32;;;2.85;;
45728;SDS011;31439;53.512;10.206;2023-11-19T04:54:07;3.97;;;3.20;;
45728;SDS011;31439;53.512;10.206;2023-11-19T04:56:33;4.78;;;2.90;;
45728;SDS011;31439;53.512;10.206;2023-11-19T04:59:00;3.60;;;3.10;;
45728;SDS011;31439;53.512;10.206;2023-11-19T05:01:27;4.93;;;3.50;;
45728;SDS011;31439;53.512;10.206;2023-11-19T05:03:53;4.78;;;3.30;;
45728;SDS011;31439;53.512;10.206;2023-11-19T05:06:19;6.13;;;3.45;;
45728;SDS011;31439;53.512;10.206;2023-11-19T05:08:45;5.00;;;3.42;;
45728;SDS011;31439;53.512;10.206;2023-11-19T05:11:11;5.10;;;3.78;;
45728;SDS011;31439;53.512;10.206;2023-11-19T05:13:42;5.05;;;3.80;;
45728;SDS011;31439;53.512;10.206;2023-11-19T05:16:10;6.78;;;4.18;;
45728;SDS011;31439;53.512;10.206;2023-11-19T05:18:39;5.35;;;3.60;;
45728;SDS011;31439;53.512;10.206;2023-11-19T05:21:05;8.02;;;4.35;;
45728;SDS011;31439;53.512;10.206;2023-11-19T05:23:31;6.07;;;4.15;;
45728;SDS011;31439;53.512;10.206;2023-11-19T05:25:59;5.88;;;4.68;;
45728;SDS011;31439;53.512;10.206;2023-11-19T05:28:25;7.07;;;4.32;;
45728;SDS011;31439;53.512;10.206;2023-11-19T05:30:51;6.72;;;4.60;;
45728;SDS011;31439;53.512;10.206;2023-11-19T05:33:17;8.02;;;5.43;;
45728;SDS011;31439;53.512;10.206;2023-11-19T05:35:43;10.40;;;5.00;;
45728;SDS011;31439;53.512;10.206;2023-11-19T05:38:09;8.95;;;5.72;;
45728;SDS011;31439;53.512;10.206;2023-11-19T05:40:35;8.00;;;6.25;;
45728;SDS011;31439;53.512;10.206;2023-11-19T05:43:03;6.85;;;5.55;;
45728;SDS011;31439;53.512;10.206;2023-11-19T05:45:30;9.48;;;6.05;;
45728;SDS011;31439;53.512;10.206;2023-11-19T05:47:56;11.45;;;6.28;;
45728;SDS011;31439;53.512;10.206;2023-11-19T05:50:22;10.45;;;6.65;;
45728;SDS011;31439;53.512;10.206;2023-11-19T05:52:48;11.52;;;6.70;;
45728;SDS011;31439;53.512;10.206;2023-11-19T05:55:15;16.08;;;7.60;;
45728;SDS011;31439;53.512;10.206;2023-11-19T05:57:41;17.27;;;8.02;;
45728;SDS011;31439;53.512;10.206;2023-11-19T06:00:07;11.02;;;8.18;;
45728;SDS011;31439;53.512;10.206;2023-11-19T06:02:35;12.68;;;8.23;;
45728;SDS011;31439;53.512;10.206;2023-11-19T06:05:03;13.57;;;8.32;;
45728;SDS011;31439;53.512;10.206;2023-11-19T06:07:30;10.82;;;8.40;;
45728;SDS011;31439;53.512;10.206;2023-11-19T06:09:56;11.77;;;7.80;;
45728;SDS011;31439;53.512;10.206;2023-11-19T06:12:22;13.13;;;8.80;;
45728;SDS011;31439;53.512;10.206;2023-11-19T06:14:48;13.85;;;8.20;;
45728;SDS011;31439;53.512;10.206;2023-11-19T06:17:15;18.60;;;9.13;;
45728;SDS011;31439;53.512;10.206;2023-11-19T06:19:41;12.10;;;9.27;;
45728;SDS011;31439;53.512;10.206;2023-11-19T06:22:07;19.50;;;9.52;;
45728;SDS011;31439;53.512;10.206;2023-11-19T06:24:33;16.70;;;9.85;;
45728;SDS011;31439;53.512;10.206;2023-11-19T06:26:59;18.88;;;10.13;;
45728;SDS011;31439;53.512;10.206;2023-11-19T06:29:25;19.35;;;10.63;;
45728;SDS011;31439;53.512;10.206;2023-11-19T06:31:51;18.95;;;10.80;;
45728;SDS011;31439;53.512;10.206;2023-11-19T06:34:17;18.60;;;9.98;;
45728;SDS011;31439;53.512;10.206;2023-11-19T06:36:43;19.83;;;10.77;;
45728;SDS011;31439;53.512;10.206;2023-11-19T06:39:09;19.27;;;11.52;;
45728;SDS011;31439;53.512;10.206;2023-11-19T06:41:40;19.38;;;11.45;;
45728;SDS011;31439;53.512;10.206;2023-11-19T06:44:10;20.73;;;12.13;;
45728;SDS011;31439;53.512;10.206;2023-11-19T06:46:36;24.17;;;12.52;;
45728;SDS011;31439;53.512;10.206;2023-11-19T06:49:02;21.02;;;11.77;;
45728;SDS011;31439;53.512;10.206;2023-11-19T06:51:28;21.48;;;12.40;;
45728;SDS011;31439;53.512;10.206;2023-11-19T06:53:54;32.75;;;12.98;;
45728;SDS011;31439;53.512;10.206;2023-11-19T06:56:21;32.20;;;13.55;;
45728;SDS011;31439;53.512;10.206;2023-11-19T06:58:47;32.05;;;12.82;;
45728;SDS011;31439;53.512;10.206;2023-11-19T07:01:14;35.13;;;11.85;;
45728;SDS011;31439;53.512;10.206;2023-11-19T07:03:40;38.10;;;11.98;;
45728;SDS011;31439;53.512;10.206;2023-11-19T07:06:07;39.58;;;11.82;;
45728;SDS011;31439;53.512;10.206;2023-11-19T07:08:33;39.63;;;12.10;;
45728;SDS011;31439;53.512;10.206;2023-11-19T07:10:59;37.75;;;10.90;;
45728;SDS011;31439;53.512;10.206;2023-11-19T07:13:25;32.58;;;9.50;;
45728;SDS011;31439;53.512;10.206;2023-11-19T07:15:52;30.70;;;9.32;;
45728;SDS011;31439;53.512;10.206;2023-11-19T07:18:19;32.45;;;9.30;;
45728;SDS011;31439;53.512;10.206;2023-11-19T07:20:47;33.50;;;8.75;;
45728;SDS011;31439;53.512;10.206;2023-11-19T07:23:13;30.45;;;8.77;;
45728;SDS011;31439;53.512;10.206;2023-11-19T07:25:41;30.25;;;7.88;;
45728;SDS011;31439;53.512;10.206;2023-11-19T07:28:08;27.38;;;7.95;;
45728;SDS011;31439;53.512;10.206;2023-11-19T07:30:34;29.40;;;7.63;;
45728;SDS011;31439;53.512;10.206;2023-11-19T07:33:01;21.10;;;7.03;;
45728;SDS011;31439;53.512;10.206;2023-11-19T07:35:29;24.67;;;6.60;;
45728;SDS011;31439;53.512;10.206;2023-11-19T07:37:55;24.55;;;6.57;;
45728;SDS011;31439;53.512;10.206;2023-11-19T07:40:22;20.10;;;5.00;;
45728;SDS011;31439;53.512;10.206;2023-11-19T07:42:49;22.13;;;5.30;;
45728;SDS011;31439;53.512;10.206;2023-11-19T07:45:15;19.83;;;6.07;;
45728;SDS011;31439;53.512;10.206;2023-11-19T07:47:41;21.58;;;5.30;;
45728;SDS011;31439;53.512;10.206;2023-11-19T07:50:09;21.95;;;5.40;;
45728;SDS011;31439;53.512;10.206;2023-11-19T07:52:35;19.35;;;5.00;;
45728;SDS011;31439;53.512;10.206;2023-11-19T07:55:01;19.42;;;5.68;;
45728;SDS011;31439;53.512;10.206;2023-11-19T07:57:27;26.35;;;5.30;;
45728;SDS011;31439;53.512;10.206;2023-11-19T07:59:56;23.35;;;6.00;;
45728;SDS011;31439;53.512;10.206;2023-11-19T08:02:22;21.33;;;5.55;;
45728;SDS011;31439;53.512;10.206;2023-11-19T08:04:49;24.77;;;5.60;;
45728;SDS011;31439;53.512;10.206;2023-11-19T08:07:17;28.55;;;5.65;;
45728;SDS011;31439;53.512;10.206;2023-11-19T08:09:43;24.20;;;5.88;;
45728;SDS011;31439;53.512;10.206;2023-11-19T08:12:09;28.25;;;6.15;;
45728;SDS011;31439;53.512;10.206;2023-11-19T08:14:35;29.92;;;6.13;;
45728;SDS011;31439;53.512;10.206;2023-11-19T08:17:02;30.00;;;5.82;;
45728;SDS011;31439;53.512;10.206;2023-11-19T08:19:28;28.20;;;6.13;;
45728;SDS011;31439;53.512;10.206;2023-11-19T08:21:54;32.58;;;6.43;;
45728;SDS011;31439;53.512;10.206;2023-11-19T08:24:20;30.05;;;6.00;;
45728;SDS011;31439;53.512;10.206;2023-11-19T08:26:46;29.83;;;6.20;;
45728;SDS011;31439;53.512;10.206;2023-11-19T08:29:12;31.05;;;5.35;;
45728;SDS011;31439;53.512;10.206;2023-11-19T08:31:38;28.50;;;4.90;;
45728;SDS011;31439;53.512;10.206;2023-11-19T08:34:04;37.80;;;6.10;;
45728;SDS011;31439;53.512;10.206;2023-11-19T08:36:34;32.38;;;5.20;;
45728;SDS011;31439;53.512;10.206;2023-11-19T08:39:00;29.50;;;5.40;;
45728;SDS011;31439;53.512;10.206;2023-11-19T08:41:26;29.40;;;5.18;;
45728;SDS011;31439;53.512;10.206;2023-11-19T08:43:52;34.88;;;5.85;;
45728;SDS011;31439;53.512;10.206;2023-11-19T08:46:18;31.65;;;5.13;;
45728;SDS011;31439;53.512;10.206;2023-11-19T08:48:44;29.13;;;5.53;;
45728;SDS011;31439;53.512;10.206;2023-11-19T08:51:11;29.27;;;5.70;;
45728;SDS011;31439;53.512;10.206;2023-11-19T08:53:37;35.30;;;5.90;;
45728;SDS011;31439;53.512;10.206;2023-11-19T08:56:04;33.53;;;6.18;;
45728;SDS011;31439;53.512;10.206;2023-11-19T08:58:30;26.98;;;5.72;;
45728;SDS011;31439;53.512;10.206;2023-11-19T09:00:56;32.10;;;5.00;;
45728;SDS011;31439;53.512;10.206;2023-11-19T09:03:23;39.10;;;5.78;;
45728;SDS011;31439;53.512;10.206;2023-11-19T09:05:51;23.13;;;4.28;;
45728;SDS011;31439;53.512;10.206;2023-11-19T09:08:17;27.98;;;5.25;;
45728;SDS011;31439;53.512;10.206;2023-11-19T09:10:43;39.60;;;5.22;;
45728;SDS011;31439;53.512;10.206;2023-11-19T09:13:09;28.17;;;5.50;;
45728;SDS011;31439;53.512;10.206;2023-11-19T09:15:35;32.30;;;5.03;;
45728;SDS011;31439;53.512;10.206;2023-11-19T09:18:01;27.13;;;5.82;;
45728;SDS011;31439;53.512;10.206;2023-11-19T09:20:27;32.92;;;4.82;;
45728;SDS011;31439;53.512;10.206;2023-11-19T09:22:57;25.70;;;5.28;;
45728;SDS011;31439;53.512;10.206;2023-11-19T09:25:23;35.83;;;5.45;;
45728;SDS011;31439;53.512;10.206;2023-11-19T09:27:49;30.65;;;5.53;;
45728;SDS011;31439;53.512;10.206;2023-11-19T09:30:15;30.25;;;5.03;;
45728;SDS011;31439;53.512;10.206;2023-11-19T09:32:41;31.92;;;5.05;;
45728;SDS011;31439;53.512;10.206;2023-11-19T09:35:07;36.22;;;5.45;;
45728;SDS011;31439;53.512;10.206;2023-11-19T09:37:33;35.92;;;5.90;;
45728;SDS011;31439;53.512;10.206;2023-11-19T09:40:00;39.00;;;5.90;;
45728;SDS011;31439;53.512;10.206;2023-11-19T09:42:26;32.25;;;5.68;;
45728;SDS011;31439;53.512;10.206;2023-11-19T09:44:52;35.92;;;5.18;;
45728;SDS011;31439;53.512;10.206;2023-11-19T09:47:19;29.90;;;5.38;;
45728;SDS011;31439;53.512;10.206;2023-11-19T09:49:46;41.22;;;5.88;;
45728;SDS011;31439;53.512;10.206;2023-11-19T09:52:12;38.38;;;5.90;;
45728;SDS011;31439;53.512;10.206;2023-11-19T09:54:45;39.60;;;6.20;;
45728;SDS011;31439;53.512;10.206;2023-11-19T09:57:11;41.90;;;6.15;;
45728;SDS011;31439;53.512;10.206;2023-11-19T09:59:38;30.85;;;6.18;;
45728;SDS011;31439;53.512;10.206;2023-11-19T10:02:04;38.78;;;6.22;;
45728;SDS011;31439;53.512;10.206;2023-11-19T10:04:31;29.92;;;5.93;;
45728;SDS011;31439;53.512;10.206;2023-11-19T10:06:58;32.38;;;6.25;;
45728;SDS011;31439;53.512;10.206;2023-11-19T10:09:24;37.60;;;6.68;;
45728;SDS011;31439;53.512;10.206;2023-11-19T10:11:50;30.50;;;5.53;;
45728;SDS011;31439;53.512;10.206;2023-11-19T10:17:39;31.30;;;5.55;;
45728;SDS011;31439;53.512;10.206;2023-11-19T10:20:43;28.77;;;5.32;;
45728;SDS011;31439;53.512;10.206;2023-11-19T10:23:09;36.50;;;6.28;;
45728;SDS011;31439;53.512;10.206;2023-11-19T10:25:36;30.17;;;5.53;;
45728;SDS011;31439;53.512;10.206;2023-11-19T10:28:02;31.25;;;5.35;;
45728;SDS011;31439;53.512;10.206;2023-11-19T10:30:29;36.40;;;5.45;;
45728;SDS011;31439;53.512;10.206;2023-11-19T10:35:27;35.55;;;6.25;;
45728;SDS011;31439;53.512;10.206;2023-11-19T10:37:53;32.40;;;5.32;;
45728;SDS011;31439;53.512;10.206;2023-11-19T10:40:19;28.85;;;5.47;;
45728;SDS011;31439;53.512;10.206;2023-11-19T10:42:45;33.28;;;5.07;;
45728;SDS011;31439;53.512;10.206;2023-11-19T10:45:21;31.75;;;5.68;;
45728;SDS011;31439;53.512;10.206;2023-11-19T10:47:48;35.05;;;6.03;;
45728;SDS011;31439;53.512;10.206;2023-11-19T10:50:15;25.60;;;5.10;;
45728;SDS011;31439;53.512;10.206;2023-11-19T10:52:41;36.30;;;6.03;;
45728;SDS011;31439;53.512;10.206;2023-11-19T10:55:09;31.60;;;5.68;;
45728;SDS011;31439;53.512;10.206;2023-11-19T10:57:40;31.30;;;5.55;;
45728;SDS011;31439;53.512;10.206;2023-11-19T11:00:12;35.40;;;5.90;;
45728;SDS011;31439;53.512;10.206;2023-11-19T11:02:43;31.27;;;5.63;;
45728;SDS011;31439;53.512;10.206;2023-11-19T11:05:11;36.03;;;5.82;;
45728;SDS011;31439;53.512;10.206;2023-11-19T11:07:37;33.30;;;5.88;;
45728;SDS011;31439;53.512;10.206;2023-11-19T11:10:05;30.80;;;5.30;;
45728;SDS011;31439;53.512;10.206;2023-11-19T11:12:34;30.90;;;4.82;;
45728;SDS011;31439;53.512;10.206;2023-11-19T11:15:02;30.05;;;5.30;;
45728;SDS011;31439;53.512;10.206;2023-11-19T11:17:30;33.15;;;5.70;;
45728;SDS011;31439;53.512;10.206;2023-11-19T11:19:57;38.00;;;6.22;;
45728;SDS011;31439;53.512;10.206;2023-11-19T11:22:23;33.90;;;5.53;;
45728;SDS011;31439;53.512;10.206;2023-11-19T11:24:58;29.35;;;4.60;;
45728;SDS011;31439;53.512;10.206;2023-11-19T11:27:34;27.55;;;4.72;;
45728;SDS011;31439;53.512;10.206;2023-11-19T11:32:45;28.77;;;5.88;;
45728;SDS011;31439;53.512;10.206;2023-11-19T11:50:46;32.10;;;5.13;;
45728;SDS011;31439;53.512;10.206;2023-11-19T11:53:13;30.88;;;5.57;;
45728;SDS011;31439;53.512;10.206;2023-11-19T11:58:21;31.77;;;5.10;;
45728;SDS011;31439;53.512;10.206;2023-11-19T12:00:48;30.08;;;5.80;;
45728;SDS011;31439;53.512;10.206;2023-11-19T12:03:16;31.38;;;5.55;;
45728;SDS011;31439;53.512;10.206;2023-11-19T12:05:45;31.90;;;5.60;;
45728;SDS011;31439;53.512;10.206;2023-11-19T12:08:12;35.80;;;5.95;;
45728;SDS011;31439;53.512;10.206;2023-11-19T12:10:50;35.58;;;5.25;;
45728;SDS011;31439;53.512;10.206;2023-11-19T12:13:17;27.00;;;4.93;;
45728;SDS011;31439;53.512;10.206;2023-11-19T12:18:29;29.90;;;5.28;;
45728;SDS011;31439;53.512;10.206;2023-11-19T12:21:00;37.00;;;5.57;;
45728;SDS011;31439;53.512;10.206;2023-11-19T12:23:30;32.00;;;5.47;;
45728;SDS011;31439;53.512;10.206;2023-11-19T12:25:56;26.08;;;4.97;;
45728;SDS011;31439;53.512;10.206;2023-11-19T12:28:23;28.80;;;5.78;;
45728;SDS011;31439;53.512;10.206;2023-11-19T12:30:51;30.65;;;5.25;;
45728;SDS011;31439;53.512;10.206;2023-11-19T12:33:18;31.30;;;5.00;;
45728;SDS011;31439;53.512;10.206;2023-11-19T12:35:48;29.92;;;5.50;;
45728;SDS011;31439;53.512;10.206;2023-11-19T12:38:20;32.47;;;5.45;;
45728;SDS011;31439;53.512;10.206;2023-11-19T12:40:47;28.90;;;5.43;;
45728;SDS011;31439;53.512;10.206;2023-11-19T12:43:22;25.27;;;5.18;;
45728;SDS011;31439;53.512;10.206;2023-11-19T12:45:48;32.60;;;5.72;;
45728;SDS011;31439;53.512;10.206;2023-11-19T12:48:14;41.38;;;6.68;;
45728;SDS011;31439;53.512;10.206;2023-11-19T12:50:53;29.75;;;5.15;;
45728;SDS011;31439;53.512;10.206;2023-11-19T12:53:20;36.25;;;5.40;;
45728;SDS011;31439;53.512;10.206;2023-11-19T12:55:46;27.45;;;4.40;;
45728;SDS011;31439;53.512;10.206;2023-11-19T12:58:28;30.17;;;5.32;;
45728;SDS011;31439;53.512;10.206;2023-11-19T13:03:30;25.35;;;4.90;;
45728;SDS011;31439;53.512;10.206;2023-11-19T13:08:29;35.70;;;5.72;;
45728;SDS011;31439;53.512;10.206;2023-11-19T13:11:02;30.05;;;5.47;;
45728;SDS011;31439;53.512;10.206;2023-11-19T13:13:28;30.50;;;5.30;;
45728;SDS011;31439;53.512;10.206;2023-11-19T13:16:02;30.42;;;5.50;;
45728;SDS011;31439;53.512;10.206;2023-11-19T13:18:29;28.60;;;5.28;;
45728;SDS011;31439;53.512;10.206;2023-11-19T13:20:55;27.35;;;5.53;;
45728;SDS011;31439;53.512;10.206;2023-11-19T13:23:22;23.70;;;4.32;;
45728;SDS011;31439;53.512;10.206;2023-11-19T13:25:48;29.45;;;5.22;;
45728;SDS011;31439;53.512;10.206;2023-11-19T13:28:14;23.52;;;4.95;;
45728;SDS011;31439;53.512;10.206;2023-11-19T13:30:40;24.50;;;4.25;;
45728;SDS011;31439;53.512;10.206;2023-11-19T13:33:06;26.92;;;4.43;;
45728;SDS011;31439;53.512;10.206;2023-11-19T13:35:32;27.80;;;5.05;;
45728;SDS011;31439;53.512;10.206;2023-11-19T13:37:59;26.02;;;4.38;;
45728;SDS011;31439;53.512;10.206;2023-11-19T13:40:25;24.98;;;4.43;;
45728;SDS011;31439;53.512;10.206;2023-11-19T13:42:51;30.10;;;4.88;;
45728;SDS011;31439;53.512;10.206;2023-11-19T13:45:17;29.00;;;4.85;;
45728;SDS011;31439;53.512;10.206;2023-11-19T13:47:45;29.17;;;5.35;;
45728;SDS011;31439;53.512;10.206;2023-11-19T13:50:12;28.17;;;4.32;;
45728;SDS011;31439;53.512;10.206;2023-11-19T13:52:38;29.23;;;4.70;;
45728;SDS011;31439;53.512;10.206;2023-11-19T13:55:05;28.38;;;4.75;;
45728;SDS011;31439;53.512;10.206;2023-11-19T13:57:32;27.25;;;4.75;;
45728;SDS011;31439;53.512;10.206;2023-11-19T13:59:59;29.98;;;4.85;;
45728;SDS011;31439;53.512;10.206;2023-11-19T14:02:25;32.13;;;5.40;;
45728;SDS011;31439;53.512;10.206;2023-11-19T14:04:51;33.20;;;5.38;;
45728;SDS011;31439;53.512;10.206;2023-11-19T14:07:17;26.33;;;5.00;;
45728;SDS011;31439;53.512;10.206;2023-11-19T14:09:43;28.90;;;6.13;;
45728;SDS011;31439;53.512;10.206;2023-11-19T14:12:10;22.58;;;4.72;;
45728;SDS011;31439;53.512;10.206;2023-11-19T14:14:38;31.08;;;5.38;;
45728;SDS011;31439;53.512;10.206;2023-11-19T14:17:04;30.63;;;4.82;;
45728;SDS011;31439;53.512;10.206;2023-11-19T14:19:30;27.85;;;5.60;;
45728;SDS011;31439;53.512;10.206;2023-11-19T14:21:56;25.58;;;5.38;;
45728;SDS011;31439;53.512;10.206;2023-11-19T14:24:25;26.45;;;4.63;;
45728;SDS011;31439;53.512;10.206;2023-11-19T14:26:51;28.02;;;4.90;;
45728;SDS011;31439;53.512;10.206;2023-11-19T14:29:17;24.10;;;4.13;;
45728;SDS011;31439;53.512;10.206;2023-11-19T14:31:46;25.67;;;5.00;;
45728;SDS011;31439;53.512;10.206;2023-11-19T14:34:14;20.73;;;4.53;;
45728;SDS011;31439;53.512;10.206;2023-11-19T14:37:00;31.05;;;4.53;;
45728;SDS011;31439;53.512;10.206;2023-11-19T14:39:35;24.33;;;4.35;;
45728;SDS011;31439;53.512;10.206;2023-11-19T14:42:21;21.42;;;4.47;;
45728;SDS011;31439;53.512;10.206;2023-11-19T14:44:48;23.90;;;5.40;;
45728;SDS011;31439;53.512;10.206;2023-11-19T14:47:14;20.63;;;4.18;;
45728;SDS011;31439;53.512;10.206;2023-11-19T14:49:40;26.38;;;4.80;;
45728;SDS011;31439;53.512;10.206;2023-11-19T14:52:06;23.27;;;4.70;;
45728;SDS011;31439;53.512;10.206;2023-11-19T14:54:33;31.15;;;5.13;;
45728;SDS011;31439;53.512;10.206;2023-11-19T14:56:59;25.05;;;4.75;;
45728;SDS011;31439;53.512;10.206;2023-11-19T14:59:25;23.77;;;4.40;;